sensor_id;sensor_type;location;lat;lon;timestamp;temperature;humidity
4962;DHT22;2496;52.468;13.342;2023-03-16T00:00:14;2.60;99.90
4962;DHT22;2496;52.468;13.342;2023-03-16T00:02:42;2.50;99.90
4962;DHT22;2496;52.468;13.342;2023-03-16T00:05:10;2.50;99.90
4962;DHT22;2496;52.468;13.342;2023-03-16T00:07:38;2.50;99.90
4962;DHT22;2496;52.468;13.342;2023-03-16T00:10:07;2.50;99.90
4962;DHT22;2496;52.468;13.342;2023-03-16T00:12:34;2.50;99.90
4962;DHT22;2496;52.468;13.342;2023-03-16T00:15:03;2.50;99.90
4962;DHT22;2496;52.468;13.342;2023-03-16T00:17:30;2.50;99.90
4962;DHT22;2496;52.468;13.342;2023-03-16T00:19:59;2.50;99.90
4962;DHT22;2496;52.468;13.342;2023-03-16T00:22:31;2.50;99.90
4962;DHT22;2496;52.468;13.342;2023-03-16T00:24:58;2.50;99.90
4962;DHT22;2496;52.468;13.342;2023-03-16T00:27:25;2.40;99.90
4962;DHT22;2496;52.468;13.342;2023-03-16T00:29:52;2.40;99.90
4962;DHT22;2496;52.468;13.342;2023-03-16T00:32:25;2.40;99.90
4962;DHT22;2496;52.468;13.342;2023-03-16T00:34:52;2.40;99.90
4962;DHT22;2496;52.468;13.342;2023-03-16T00:37:21;2.40;99.90
4962;DHT22;2496;52.468;13.342;2023-03-16T00:39:49;2.40;99.90
4962;DHT22;2496;52.468;13.342;2023-03-16T00:42:17;2.40;99.90
4962;DHT22;2496;52.468;13.342;2023-03-16T00:44:45;2.40;99.90
4962;DHT22;2496;52.468;13.342;2023-03-16T00:47:13;2.40;99.90
4962;DHT22;2496;52.468;13.342;2023-03-16T00:49:43;2.40;99.90
4962;DHT22;2496;52.468;13.342;2023-03-16T00:52:15;2.40;99.90
4962;DHT22;2496;52.468;13.342;2023-03-16T00:54:47;2.30;99.90
4962;DHT22;2496;52.468;13.342;2023-03-16T00:57:17;2.30;99.90
4962;DHT22;2496;52.468;13.342;2023-03-16T00:59:44;2.30;99.90
4962;DHT22;2496;52.468;13.342;2023-03-16T01:02:12;2.30;99.90
4962;DHT22;2496;52.468;13.342;2023-03-16T01:04:42;2.30;99.90
4962;DHT22;2496;52.468;13.342;2023-03-16T01:07:12;2.30;99.90
4962;DHT22;2496;52.468;13.342;2023-03-16T01:09:40;2.30;99.90
4962;DHT22;2496;52.468;13.342;2023-03-16T01:12:09;2.20;99.90
4962;DHT22;2496;52.468;13.342;2023-03-16T01:14:37;2.20;99.90
4962;DHT22;2496;52.468;13.342;2023-03-16T01:17:06;2.20;99.90
4962;DHT22;2496;52.468;13.342;2023-03-16T01:19:34;2.20;99.90
4962;DHT22;2496;52.468;13.342;2023-03-16T01:22:04;2.20;99.90
4962;DHT22;2496;52.468;13.342;2023-03-16T01:24:38;2.20;99.90
4962;DHT22;2496;52.468;13.342;2023-03-16T01:27:07;2.20;99.90
4962;DHT22;2496;52.468;13.342;2023-03-16T01:29:35;2.20;99.90
4962;DHT22;2496;52.468;13.342;2023-03-16T01:32:03;2.20;99.90
4962;DHT22;2496;52.468;13.342;2023-03-16T01:34:30;2.10;99.90
4962;DHT22;2496;52.468;13.342;2023-03-16T01:36:59;2.10;99.90
4962;DHT22;2496;52.468;13.342;2023-03-16T01:39:27;2.10;99.90
4962;DHT22;2496;52.468;13.342;2023-03-16T01:41:55;2.10;99.90
4962;DHT22;2496;52.468;13.342;2023-03-16T01:44:24;2.10;99.90
4962;DHT22;2496;52.468;13.342;2023-03-16T01:46:55;2.10;99.90
4962;DHT22;2496;52.468;13.342;2023-03-16T01:49:23;2.00;99.90
4962;DHT22;2496;52.468;13.342;2023-03-16T01:51:53;2.10;99.90
4962;DHT22;2496;52.468;13.342;2023-03-16T01:54:24;2.00;99.90
4962;DHT22;2496;52.468;13.342;2023-03-16T01:56:59;2.00;99.90
4962;DHT22;2496;52.468;13.342;2023-03-16T01:59:30;2.00;99.90
4962;DHT22;2496;52.468;13.342;2023-03-16T02:01:59;2.00;99.90
4962;DHT22;2496;52.468;13.342;2023-03-16T02:04:37;2.00;99.90
4962;DHT22;2496;52.468;13.342;2023-03-16T02:07:07;2.00;99.90
4962;DHT22;2496;52.468;13.342;2023-03-16T02:09:38;2.00;99.90
4962;DHT22;2496;52.468;13.342;2023-03-16T02:12:09;2.00;99.90
4962;DHT22;2496;52.468;13.342;2023-03-16T02:14:43;2.00;99.90
4962;DHT22;2496;52.468;13.342;2023-03-16T02:17:11;2.00;99.90
4962;DHT22;2496;52.468;13.342;2023-03-16T02:19:44;2.00;99.90
4962;DHT22;2496;52.468;13.342;2023-03-16T02:22:17;2.00;99.90
4962;DHT22;2496;52.468;13.342;2023-03-16T02:24:45;2.00;99.90
4962;DHT22;2496;52.468;13.342;2023-03-16T02:27:23;2.00;99.90
4962;DHT22;2496;52.468;13.342;2023-03-16T02:29:58;2.00;99.90
4962;DHT22;2496;52.468;13.342;2023-03-16T02:32:29;2.00;99.90
4962;DHT22;2496;52.468;13.342;2023-03-16T02:34:59;2.00;99.90
4962;DHT22;2496;52.468;13.342;2023-03-16T02:37:27;1.90;99.90
4962;DHT22;2496;52.468;13.342;2023-03-16T02:39:54;1.90;99.90
4962;DHT22;2496;52.468;13.342;2023-03-16T02:42:24;1.90;99.90
4962;DHT22;2496;52.468;13.342;2023-03-16T02:44:56;1.90;99.90
4962;DHT22;2496;52.468;13.342;2023-03-16T02:47:31;1.90;99.90
4962;DHT22;2496;52.468;13.342;2023-03-16T02:50:00;1.90;99.90
4962;DHT22;2496;52.468;13.342;2023-03-16T02:52:31;1.90;99.90
4962;DHT22;2496;52.468;13.342;2023-03-16T02:54:59;1.90;99.90
4962;DHT22;2496;52.468;13.342;2023-03-16T02:57:26;1.80;99.90
4962;DHT22;2496;52.468;13.342;2023-03-16T02:59:53;1.80;99.90
4962;DHT22;2496;52.468;13.342;2023-03-16T03:02:22;1.70;99.90
4962;DHT22;2496;52.468;13.342;2023-03-16T03:04:49;1.70;99.90
4962;DHT22;2496;52.468;13.342;2023-03-16T03:07:20;1.70;99.90
4962;DHT22;2496;52.468;13.342;2023-03-16T03:09:57;1.60;99.90
4962;DHT22;2496;52.468;13.342;2023-03-16T03:12:24;1.60;99.90
4962;DHT22;2496;52.468;13.342;2023-03-16T03:14:51;1.60;99.90
4962;DHT22;2496;52.468;13.342;2023-03-16T03:17:19;1.60;99.90
4962;DHT22;2496;52.468;13.342;2023-03-16T03:19:47;1.60;99.90
4962;DHT22;2496;52.468;13.342;2023-03-16T03:22:14;1.60;99.90
4962;DHT22;2496;52.468;13.342;2023-03-16T03:24:43;1.50;99.90
4962;DHT22;2496;52.468;13.342;2023-03-16T03:27:10;1.50;99.90
4962;DHT22;2496;52.468;13.342;2023-03-16T03:29:38;1.50;99.90
4962;DHT22;2496;52.468;13.342;2023-03-16T03:32:06;1.50;99.90
4962;DHT22;2496;52.468;13.342;2023-03-16T03:34:33;1.40;99.90
4962;DHT22;2496;52.468;13.342;2023-03-16T03:37:02;1.40;99.90
4962;DHT22;2496;52.468;13.342;2023-03-16T03:39:29;1.40;99.90
4962;DHT22;2496;52.468;13.342;2023-03-16T03:41:56;1.40;99.90
4962;DHT22;2496;52.468;13.342;2023-03-16T03:44:24;1.30;99.90
4962;DHT22;2496;52.468;13.342;2023-03-16T03:46:51;1.30;99.90
4962;DHT22;2496;52.468;13.342;2023-03-16T03:49:18;1.30;99.90
4962;DHT22;2496;52.468;13.342;2023-03-16T03:51:45;1.30;99.90
4962;DHT22;2496;52.468;13.342;2023-03-16T03:54:14;1.30;99.90
4962;DHT22;2496;52.468;13.342;2023-03-16T03:56:41;1.30;99.90
4962;DHT22;2496;52.468;13.342;2023-03-16T03:59:08;1.30;99.90
4962;DHT22;2496;52.468;13.342;2023-03-16T04:01:35;1.30;99.90
4962;DHT22;2496;52.468;13.342;2023-03-16T04:04:02;1.30;99.90
4962;DHT22;2496;52.468;13.342;2023-03-16T04:06:29;1.30;99.90
4962;DHT22;2496;52.468;13.342;2023-03-16T04:08:56;1.30;99.90
4962;DHT22;2496;52.468;13.342;2023-03-16T04:11:24;1.30;99.90
4962;DHT22;2496;52.468;13.342;2023-03-16T04:13:51;1.30;99.90
4962;DHT22;2496;52.468;13.342;2023-03-16T04:16:19;1.20;99.90
4962;DHT22;2496;52.468;13.342;2023-03-16T04:18:46;1.30;99.90
4962;DHT22;2496;52.468;13.342;2023-03-16T04:21:15;1.30;99.90
4962;DHT22;2496;52.468;13.342;2023-03-16T04:23:42;1.30;99.90
4962;DHT22;2496;52.468;13.342;2023-03-16T04:26:09;1.30;99.90
4962;DHT22;2496;52.468;13.342;2023-03-16T04:28:38;1.30;99.90
4962;DHT22;2496;52.468;13.342;2023-03-16T04:31:06;1.20;99.90
4962;DHT22;2496;52.468;13.342;2023-03-16T04:33:34;1.30;99.90
4962;DHT22;2496;52.468;13.342;2023-03-16T04:36:02;1.20;99.90
4962;DHT22;2496;52.468;13.342;2023-03-16T04:38:29;1.30;99.90
4962;DHT22;2496;52.468;13.342;2023-03-16T04:40:58;1.30;99.90
4962;DHT22;2496;52.468;13.342;2023-03-16T04:43:25;1.30;99.90
4962;DHT22;2496;52.468;13.342;2023-03-16T04:45:54;1.30;99.90
4962;DHT22;2496;52.468;13.342;2023-03-16T04:48:21;1.30;99.90
4962;DHT22;2496;52.468;13.342;2023-03-16T04:50:48;1.30;99.90
4962;DHT22;2496;52.468;13.342;2023-03-16T04:53:16;1.30;99.90
4962;DHT22;2496;52.468;13.342;2023-03-16T04:55:43;1.30;99.90
4962;DHT22;2496;52.468;13.342;2023-03-16T04:58:10;1.20;99.90
4962;DHT22;2496;52.468;13.342;2023-03-16T05:00:39;1.20;99.90
4962;DHT22;2496;52.468;13.342;2023-03-16T05:03:07;1.20;99.90
4962;DHT22;2496;52.468;13.342;2023-03-16T05:05:34;1.20;99.90
4962;DHT22;2496;52.468;13.342;2023-03-16T05:08:01;1.20;99.90
4962;DHT22;2496;52.468;13.342;2023-03-16T05:10:31;1.20;99.90
4962;DHT22;2496;52.468;13.342;2023-03-16T05:12:59;1.10;99.90
4962;DHT22;2496;52.468;13.342;2023-03-16T05:15:26;1.10;99.90
4962;DHT22;2496;52.468;13.342;2023-03-16T05:17:54;1.10;99.90
4962;DHT22;2496;52.468;13.342;2023-03-16T05:20:23;1.00;99.90
4962;DHT22;2496;52.468;13.342;2023-03-16T05:22:51;1.10;99.90
4962;DHT22;2496;52.468;13.342;2023-03-16T05:25:19;1.10;99.90
4962;DHT22;2496;52.468;13.342;2023-03-16T05:27:48;1.00;99.90
4962;DHT22;2496;52.468;13.342;2023-03-16T05:30:16;1.00;99.90
4962;DHT22;2496;52.468;13.342;2023-03-16T05:32:44;1.00;99.90
4962;DHT22;2496;52.468;13.342;2023-03-16T05:35:12;1.00;99.90
4962;DHT22;2496;52.468;13.342;2023-03-16T05:37:41;1.00;99.90
4962;DHT22;2496;52.468;13.342;2023-03-16T05:40:11;1.00;99.90
4962;DHT22;2496;52.468;13.342;2023-03-16T05:42:42;1.00;99.90
4962;DHT22;2496;52.468;13.342;2023-03-16T05:45:10;1.00;99.90
4962;DHT22;2496;52.468;13.342;2023-03-16T05:47:37;1.10;99.90
4962;DHT22;2496;52.468;13.342;2023-03-16T05:50:05;1.10;99.90
4962;DHT22;2496;52.468;13.342;2023-03-16T05:52:33;1.10;99.90
4962;DHT22;2496;52.468;13.342;2023-03-16T05:55:02;1.10;99.90
4962;DHT22;2496;52.468;13.342;2023-03-16T05:57:30;1.10;99.90
4962;DHT22;2496;52.468;13.342;2023-03-16T05:59:57;1.10;99.90
4962;DHT22;2496;52.468;13.342;2023-03-16T06:02:24;1.10;99.90
4962;DHT22;2496;52.468;13.342;2023-03-16T06:04:51;1.20;99.90
4962;DHT22;2496;52.468;13.342;2023-03-16T06:07:18;1.20;99.90
4962;DHT22;2496;52.468;13.342;2023-03-16T06:09:45;1.20;99.90
4962;DHT22;2496;52.468;13.342;2023-03-16T06:12:14;1.20;99.90
4962;DHT22;2496;52.468;13.342;2023-03-16T06:14:41;1.20;99.90
4962;DHT22;2496;52.468;13.342;2023-03-16T06:17:08;1.20;99.90
4962;DHT22;2496;52.468;13.342;2023-03-16T06:19:35;1.30;99.90
4962;DHT22;2496;52.468;13.342;2023-03-16T06:22:02;1.30;99.90
4962;DHT22;2496;52.468;13.342;2023-03-16T06:24:29;1.30;99.90
4962;DHT22;2496;52.468;13.342;2023-03-16T06:26:56;1.30;99.90
4962;DHT22;2496;52.468;13.342;2023-03-16T06:29:24;1.40;99.90
4962;DHT22;2496;52.468;13.342;2023-03-16T06:31:51;1.40;99.90
4962;DHT22;2496;52.468;13.342;2023-03-16T06:34:19;1.40;99.90
4962;DHT22;2496;52.468;13.342;2023-03-16T06:36:47;1.40;99.90
4962;DHT22;2496;52.468;13.342;2023-03-16T06:39:14;1.50;99.90
4962;DHT22;2496;52.468;13.342;2023-03-16T06:41:41;1.50;99.90
4962;DHT22;2496;52.468;13.342;2023-03-16T06:44:09;1.50;99.90
4962;DHT22;2496;52.468;13.342;2023-03-16T06:46:37;1.50;99.90
4962;DHT22;2496;52.468;13.342;2023-03-16T06:49:04;1.50;99.90
4962;DHT22;2496;52.468;13.342;2023-03-16T06:51:31;1.50;99.90
4962;DHT22;2496;52.468;13.342;2023-03-16T06:53:58;1.60;99.90
4962;DHT22;2496;52.468;13.342;2023-03-16T06:56:25;1.60;99.90
4962;DHT22;2496;52.468;13.342;2023-03-16T06:58:53;1.70;99.90
4962;DHT22;2496;52.468;13.342;2023-03-16T07:01:20;1.70;99.90
4962;DHT22;2496;52.468;13.342;2023-03-16T07:03:49;1.80;99.90
4962;DHT22;2496;52.468;13.342;2023-03-16T07:06:16;1.90;99.90
4962;DHT22;2496;52.468;13.342;2023-03-16T07:08:43;2.00;99.90
4962;DHT22;2496;52.468;13.342;2023-03-16T07:11:10;2.00;99.90
4962;DHT22;2496;52.468;13.342;2023-03-16T07:13:38;2.10;99.90
4962;DHT22;2496;52.468;13.342;2023-03-16T07:16:05;2.30;99.90
4962;DHT22;2496;52.468;13.342;2023-03-16T07:18:33;2.80;99.90
4962;DHT22;2496;52.468;13.342;2023-03-16T07:21:07;3.40;99.90
4962;DHT22;2496;52.468;13.342;2023-03-16T07:23:34;4.00;99.90
4962;DHT22;2496;52.468;13.342;2023-03-16T07:26:03;4.70;99.90
4962;DHT22;2496;52.468;13.342;2023-03-16T07:28:32;5.30;99.90
4962;DHT22;2496;52.468;13.342;2023-03-16T07:31:00;5.90;99.90
4962;DHT22;2496;52.468;13.342;2023-03-16T07:33:27;6.30;99.90
4962;DHT22;2496;52.468;13.342;2023-03-16T07:35:53;6.70;99.90
4962;DHT22;2496;52.468;13.342;2023-03-16T07:38:22;7.00;99.90
4962;DHT22;2496;52.468;13.342;2023-03-16T07:40:49;7.20;99.90
4962;DHT22;2496;52.468;13.342;2023-03-16T07:43:17;7.20;99.90
4962;DHT22;2496;52.468;13.342;2023-03-16T07:45:47;7.20;99.90
4962;DHT22;2496;52.468;13.342;2023-03-16T07:48:14;7.20;99.90
4962;DHT22;2496;52.468;13.342;2023-03-16T07:50:41;7.20;99.90
4962;DHT22;2496;52.468;13.342;2023-03-16T07:53:09;7.10;99.90
4962;DHT22;2496;52.468;13.342;2023-03-16T07:55:37;7.00;99.90
4962;DHT22;2496;52.468;13.342;2023-03-16T07:58:04;6.90;99.90
4962;DHT22;2496;52.468;13.342;2023-03-16T08:00:32;6.80;99.90
4962;DHT22;2496;52.468;13.342;2023-03-16T08:03:00;6.70;99.90
4962;DHT22;2496;52.468;13.342;2023-03-16T08:05:28;6.50;99.90
4962;DHT22;2496;52.468;13.342;2023-03-16T08:07:57;6.30;99.90
4962;DHT22;2496;52.468;13.342;2023-03-16T08:10:26;6.20;99.90
4962;DHT22;2496;52.468;13.342;2023-03-16T08:12:55;6.20;99.90
4962;DHT22;2496;52.468;13.342;2023-03-16T08:15:25;6.20;99.90
4962;DHT22;2496;52.468;13.342;2023-03-16T08:17:52;6.20;99.90
4962;DHT22;2496;52.468;13.342;2023-03-16T08:20:21;6.30;99.90
4962;DHT22;2496;52.468;13.342;2023-03-16T08:22:48;6.40;99.90
4962;DHT22;2496;52.468;13.342;2023-03-16T08:25:15;6.50;99.90
4962;DHT22;2496;52.468;13.342;2023-03-16T08:27:44;6.60;99.90
4962;DHT22;2496;52.468;13.342;2023-03-16T08:30:15;6.80;99.90
4962;DHT22;2496;52.468;13.342;2023-03-16T08:32:43;6.90;99.90
4962;DHT22;2496;52.468;13.342;2023-03-16T08:35:12;7.10;99.80
4962;DHT22;2496;52.468;13.342;2023-03-16T08:37:40;7.30;99.60
4962;DHT22;2496;52.468;13.342;2023-03-16T08:40:08;7.50;98.70
4962;DHT22;2496;52.468;13.342;2023-03-16T08:42:38;7.60;98.50
4962;DHT22;2496;52.468;13.342;2023-03-16T08:45:07;7.70;97.90
4962;DHT22;2496;52.468;13.342;2023-03-16T08:47:36;7.70;97.30
4962;DHT22;2496;52.468;13.342;2023-03-16T08:50:05;7.80;97.40
4962;DHT22;2496;52.468;13.342;2023-03-16T08:52:33;8.10;97.30
4962;DHT22;2496;52.468;13.342;2023-03-16T08:55:01;8.40;97.20
4962;DHT22;2496;52.468;13.342;2023-03-16T08:57:29;8.70;96.50
4962;DHT22;2496;52.468;13.342;2023-03-16T08:59:57;8.90;95.70
4962;DHT22;2496;52.468;13.342;2023-03-16T09:02:24;9.20;95.10
4962;DHT22;2496;52.468;13.342;2023-03-16T09:04:53;9.60;95.60
4962;DHT22;2496;52.468;13.342;2023-03-16T09:07:20;10.10;94.40
4962;DHT22;2496;52.468;13.342;2023-03-16T09:09:47;10.60;93.10
4962;DHT22;2496;52.468;13.342;2023-03-16T09:12:15;10.70;92.20
4962;DHT22;2496;52.468;13.342;2023-03-16T09:14:42;10.80;91.70
4962;DHT22;2496;52.468;13.342;2023-03-16T09:17:10;11.10;91.80
4962;DHT22;2496;52.468;13.342;2023-03-16T09:19:37;11.40;91.20
4962;DHT22;2496;52.468;13.342;2023-03-16T09:22:06;11.60;90.30
4962;DHT22;2496;52.468;13.342;2023-03-16T09:24:33;11.70;89.90
4962;DHT22;2496;52.468;13.342;2023-03-16T09:27:00;11.80;88.10
4962;DHT22;2496;52.468;13.342;2023-03-16T09:29:27;11.70;87.70
4962;DHT22;2496;52.468;13.342;2023-03-16T09:31:54;11.70;86.70
4962;DHT22;2496;52.468;13.342;2023-03-16T09:34:21;11.40;87.50
4962;DHT22;2496;52.468;13.342;2023-03-16T09:36:48;11.00;87.70
4962;DHT22;2496;52.468;13.342;2023-03-16T09:39:17;10.60;87.10
4962;DHT22;2496;52.468;13.342;2023-03-16T09:41:47;10.10;87.20
4962;DHT22;2496;52.468;13.342;2023-03-16T09:44:35;9.70;90.20
4962;DHT22;2496;52.468;13.342;2023-03-16T09:47:06;9.30;89.80
4962;DHT22;2496;52.468;13.342;2023-03-16T09:49:39;9.00;89.20
4962;DHT22;2496;52.468;13.342;2023-03-16T09:52:16;8.80;90.30
4962;DHT22;2496;52.468;13.342;2023-03-16T09:57:53;8.40;90.90
4962;DHT22;2496;52.468;13.342;2023-03-16T10:00:40;8.20;90.90
4962;DHT22;2496;52.468;13.342;2023-03-16T10:03:34;8.00;91.00
4962;DHT22;2496;52.468;13.342;2023-03-16T10:06:09;7.90;91.10
4962;DHT22;2496;52.468;13.342;2023-03-16T10:08:39;7.80;90.60
4962;DHT22;2496;52.468;13.342;2023-03-16T10:11:23;7.70;90.70
4962;DHT22;2496;52.468;13.342;2023-03-16T10:13:55;7.60;90.40
4962;DHT22;2496;52.468;13.342;2023-03-16T10:16:29;7.60;90.90
4962;DHT22;2496;52.468;13.342;2023-03-16T10:19:02;7.60;91.20
4962;DHT22;2496;52.468;13.342;2023-03-16T10:21:36;7.60;91.30
4962;DHT22;2496;52.468;13.342;2023-03-16T10:24:12;7.60;90.20
4962;DHT22;2496;52.468;13.342;2023-03-16T10:26:47;7.60;90.50
4962;DHT22;2496;52.468;13.342;2023-03-16T10:29:16;7.60;91.00
4962;DHT22;2496;52.468;13.342;2023-03-16T10:31:43;7.60;90.10
4962;DHT22;2496;52.468;13.342;2023-03-16T10:34:10;7.70;90.10
4962;DHT22;2496;52.468;13.342;2023-03-16T10:36:40;7.70;89.10
4962;DHT22;2496;52.468;13.342;2023-03-16T10:39:12;7.70;88.30
4962;DHT22;2496;52.468;13.342;2023-03-16T10:41:42;7.70;86.80
4962;DHT22;2496;52.468;13.342;2023-03-16T10:44:11;7.70;85.80
4962;DHT22;2496;52.468;13.342;2023-03-16T10:46:41;7.70;85.90
4962;DHT22;2496;52.468;13.342;2023-03-16T10:49:23;7.80;86.10
4962;DHT22;2496;52.468;13.342;2023-03-16T10:51:52;7.80;86.30
4962;DHT22;2496;52.468;13.342;2023-03-16T10:54:27;7.80;86.40
4962;DHT22;2496;52.468;13.342;2023-03-16T10:56:55;7.80;87.50
4962;DHT22;2496;52.468;13.342;2023-03-16T10:59:29;7.80;87.40
4962;DHT22;2496;52.468;13.342;2023-03-16T11:02:01;7.80;88.10
4962;DHT22;2496;52.468;13.342;2023-03-16T11:04:30;7.90;88.50
4962;DHT22;2496;52.468;13.342;2023-03-16T11:06:58;7.90;87.80
4962;DHT22;2496;52.468;13.342;2023-03-16T11:09:31;7.90;84.60
4962;DHT22;2496;52.468;13.342;2023-03-16T11:11:59;7.90;85.30
4962;DHT22;2496;52.468;13.342;2023-03-16T11:14:28;7.90;87.40
4962;DHT22;2496;52.468;13.342;2023-03-16T11:17:02;8.00;87.80
4962;DHT22;2496;52.468;13.342;2023-03-16T11:19:36;8.10;87.60
4962;DHT22;2496;52.468;13.342;2023-03-16T11:22:08;8.20;87.80
4962;DHT22;2496;52.468;13.342;2023-03-16T11:24:44;8.20;87.20
4962;DHT22;2496;52.468;13.342;2023-03-16T11:27:19;8.20;86.80
4962;DHT22;2496;52.468;13.342;2023-03-16T11:29:59;8.20;87.10
4962;DHT22;2496;52.468;13.342;2023-03-16T11:32:33;8.20;86.90
4962;DHT22;2496;52.468;13.342;2023-03-16T11:35:05;8.20;87.10
4962;DHT22;2496;52.468;13.342;2023-03-16T11:37:47;8.30;85.90
4962;DHT22;2496;52.468;13.342;2023-03-16T11:40:30;8.30;84.10
4962;DHT22;2496;52.468;13.342;2023-03-16T11:43:04;8.20;84.30
4962;DHT22;2496;52.468;13.342;2023-03-16T11:45:39;8.10;84.20
4962;DHT22;2496;52.468;13.342;2023-03-16T11:48:23;8.10;83.80
4962;DHT22;2496;52.468;13.342;2023-03-16T11:51:03;8.20;83.80
4962;DHT22;2496;52.468;13.342;2023-03-16T11:53:47;8.20;83.80
4962;DHT22;2496;52.468;13.342;2023-03-16T11:56:22;8.30;81.50
4962;DHT22;2496;52.468;13.342;2023-03-16T11:59:12;8.30;80.00
4962;DHT22;2496;52.468;13.342;2023-03-16T12:02:00;8.40;80.00
4962;DHT22;2496;52.468;13.342;2023-03-16T12:04:43;8.40;82.10
4962;DHT22;2496;52.468;13.342;2023-03-16T12:07:18;8.40;82.80
4962;DHT22;2496;52.468;13.342;2023-03-16T12:10:02;8.40;83.00
4962;DHT22;2496;52.468;13.342;2023-03-16T12:12:39;8.40;81.20
4962;DHT22;2496;52.468;13.342;2023-03-16T12:15:18;8.30;81.20
4962;DHT22;2496;52.468;13.342;2023-03-16T12:17:50;8.30;80.20
4962;DHT22;2496;52.468;13.342;2023-03-16T12:20:22;8.40;78.00
4962;DHT22;2496;52.468;13.342;2023-03-16T12:22:52;8.40;73.90
4962;DHT22;2496;52.468;13.342;2023-03-16T12:25:26;8.40;76.30
4962;DHT22;2496;52.468;13.342;2023-03-16T12:27:57;8.50;77.90
4962;DHT22;2496;52.468;13.342;2023-03-16T12:30:34;8.50;79.00
4962;DHT22;2496;52.468;13.342;2023-03-16T12:33:07;8.50;78.90
4962;DHT22;2496;52.468;13.342;2023-03-16T12:35:44;8.60;79.20
4962;DHT22;2496;52.468;13.342;2023-03-16T12:41:13;8.60;77.10
4962;DHT22;2496;52.468;13.342;2023-03-16T12:44:00;8.60;79.10
4962;DHT22;2496;52.468;13.342;2023-03-16T12:46:38;8.60;79.90
4962;DHT22;2496;52.468;13.342;2023-03-16T12:49:08;8.70;80.20
4962;DHT22;2496;52.468;13.342;2023-03-16T12:51:38;8.70;78.80
4962;DHT22;2496;52.468;13.342;2023-03-16T12:54:17;8.80;79.20
4962;DHT22;2496;52.468;13.342;2023-03-16T12:56:46;8.90;78.30
4962;DHT22;2496;52.468;13.342;2023-03-16T12:59:16;8.90;78.10
4962;DHT22;2496;52.468;13.342;2023-03-16T13:01:44;8.90;77.40
4962;DHT22;2496;52.468;13.342;2023-03-16T13:04:16;8.90;75.40
4962;DHT22;2496;52.468;13.342;2023-03-16T13:06:48;8.90;75.60
4962;DHT22;2496;52.468;13.342;2023-03-16T13:09:18;8.90;76.40
4962;DHT22;2496;52.468;13.342;2023-03-16T13:11:48;8.90;76.80
4962;DHT22;2496;52.468;13.342;2023-03-16T13:14:29;9.00;75.70
4962;DHT22;2496;52.468;13.342;2023-03-16T13:17:04;9.00;72.30
4962;DHT22;2496;52.468;13.342;2023-03-16T13:19:32;9.00;70.70
4962;DHT22;2496;52.468;13.342;2023-03-16T13:22:23;8.90;71.10
4962;DHT22;2496;52.468;13.342;2023-03-16T13:24:53;8.90;73.00
4962;DHT22;2496;52.468;13.342;2023-03-16T13:27:22;8.90;73.50
4962;DHT22;2496;52.468;13.342;2023-03-16T13:29:54;8.90;74.10
4962;DHT22;2496;52.468;13.342;2023-03-16T13:32:21;8.90;73.90
4962;DHT22;2496;52.468;13.342;2023-03-16T13:34:52;8.90;74.00
4962;DHT22;2496;52.468;13.342;2023-03-16T13:37:25;9.00;74.60
4962;DHT22;2496;52.468;13.342;2023-03-16T13:39:54;9.00;74.80
4962;DHT22;2496;52.468;13.342;2023-03-16T13:42:23;8.90;74.70
4962;DHT22;2496;52.468;13.342;2023-03-16T13:44:52;8.90;74.40
4962;DHT22;2496;52.468;13.342;2023-03-16T13:47:20;8.90;73.10
4962;DHT22;2496;52.468;13.342;2023-03-16T13:49:48;8.90;72.00
4962;DHT22;2496;52.468;13.342;2023-03-16T13:52:21;8.90;71.70
4962;DHT22;2496;52.468;13.342;2023-03-16T13:54:52;9.00;72.10
4962;DHT22;2496;52.468;13.342;2023-03-16T13:57:23;9.00;71.30
4962;DHT22;2496;52.468;13.342;2023-03-16T14:00:02;9.10;69.10
4962;DHT22;2496;52.468;13.342;2023-03-16T14:02:35;9.20;69.10
4962;DHT22;2496;52.468;13.342;2023-03-16T14:05:11;9.20;69.00
4962;DHT22;2496;52.468;13.342;2023-03-16T14:07:45;9.20;67.80
4962;DHT22;2496;52.468;13.342;2023-03-16T14:10:15;9.30;66.50
4962;DHT22;2496;52.468;13.342;2023-03-16T14:12:50;9.30;65.80
4962;DHT22;2496;52.468;13.342;2023-03-16T14:15:18;9.30;65.90
4962;DHT22;2496;52.468;13.342;2023-03-16T14:17:46;9.30;66.10
4962;DHT22;2496;52.468;13.342;2023-03-16T14:20:17;9.20;67.00
4962;DHT22;2496;52.468;13.342;2023-03-16T14:22:45;9.10;67.70
4962;DHT22;2496;52.468;13.342;2023-03-16T14:25:19;9.00;67.70
4962;DHT22;2496;52.468;13.342;2023-03-16T14:27:57;9.00;67.70
4962;DHT22;2496;52.468;13.342;2023-03-16T14:30:26;8.90;67.50
4962;DHT22;2496;52.468;13.342;2023-03-16T14:32:56;8.90;67.30
4962;DHT22;2496;52.468;13.342;2023-03-16T14:35:26;9.00;66.10
4962;DHT22;2496;52.468;13.342;2023-03-16T14:37:53;9.00;66.20
4962;DHT22;2496;52.468;13.342;2023-03-16T14:40:26;9.00;66.80
4962;DHT22;2496;52.468;13.342;2023-03-16T14:42:56;9.00;65.40
4962;DHT22;2496;52.468;13.342;2023-03-16T14:45:30;9.00;65.20
4962;DHT22;2496;52.468;13.342;2023-03-16T14:48:03;9.10;65.00
4962;DHT22;2496;52.468;13.342;2023-03-16T14:50:31;9.10;64.00
4962;DHT22;2496;52.468;13.342;2023-03-16T14:52:59;9.10;64.50
4962;DHT22;2496;52.468;13.342;2023-03-16T14:55:30;9.20;64.80
4962;DHT22;2496;52.468;13.342;2023-03-16T14:57:57;9.20;64.90
4962;DHT22;2496;52.468;13.342;2023-03-16T15:00:25;9.20;64.80
4962;DHT22;2496;52.468;13.342;2023-03-16T15:02:58;9.20;64.30
4962;DHT22;2496;52.468;13.342;2023-03-16T15:05:32;9.10;61.00
4962;DHT22;2496;52.468;13.342;2023-03-16T15:08:01;9.10;61.20
4962;DHT22;2496;52.468;13.342;2023-03-16T15:10:31;9.10;61.30
4962;DHT22;2496;52.468;13.342;2023-03-16T15:13:01;9.10;61.60
4962;DHT22;2496;52.468;13.342;2023-03-16T15:15:38;9.10;62.50
4962;DHT22;2496;52.468;13.342;2023-03-16T15:18:07;9.00;62.50
4962;DHT22;2496;52.468;13.342;2023-03-16T15:20:38;9.00;62.20
4962;DHT22;2496;52.468;13.342;2023-03-16T15:23:09;9.00;61.40
4962;DHT22;2496;52.468;13.342;2023-03-16T15:25:41;8.90;60.40
4962;DHT22;2496;52.468;13.342;2023-03-16T15:28:11;8.90;60.70
4962;DHT22;2496;52.468;13.342;2023-03-16T15:30:39;8.90;58.90
4962;DHT22;2496;52.468;13.342;2023-03-16T15:33:10;8.80;59.40
4962;DHT22;2496;52.468;13.342;2023-03-16T15:35:38;8.80;59.20
4962;DHT22;2496;52.468;13.342;2023-03-16T15:38:11;8.90;59.50
4962;DHT22;2496;52.468;13.342;2023-03-16T15:40:42;8.80;59.50
4962;DHT22;2496;52.468;13.342;2023-03-16T15:43:11;8.80;58.30
4962;DHT22;2496;52.468;13.342;2023-03-16T15:45:38;8.80;58.30
4962;DHT22;2496;52.468;13.342;2023-03-16T15:48:06;8.80;57.70
4962;DHT22;2496;52.468;13.342;2023-03-16T15:50:33;8.70;57.40
4962;DHT22;2496;52.468;13.342;2023-03-16T15:53:04;8.70;58.20
4962;DHT22;2496;52.468;13.342;2023-03-16T15:55:36;8.70;58.60
4962;DHT22;2496;52.468;13.342;2023-03-16T15:58:05;8.70;59.90
4962;DHT22;2496;52.468;13.342;2023-03-16T16:00:37;8.70;60.30
4962;DHT22;2496;52.468;13.342;2023-03-16T16:03:05;8.60;60.90
4962;DHT22;2496;52.468;13.342;2023-03-16T16:05:33;8.60;61.90
4962;DHT22;2496;52.468;13.342;2023-03-16T16:08:01;8.60;61.70
4962;DHT22;2496;52.468;13.342;2023-03-16T16:10:29;8.60;62.30
4962;DHT22;2496;52.468;13.342;2023-03-16T16:12:56;8.60;61.90
4962;DHT22;2496;52.468;13.342;2023-03-16T16:15:27;8.50;61.90
4962;DHT22;2496;52.468;13.342;2023-03-16T16:17:57;8.50;62.30
4962;DHT22;2496;52.468;13.342;2023-03-16T16:20:26;8.50;62.60
4962;DHT22;2496;52.468;13.342;2023-03-16T16:22:55;8.40;62.90
4962;DHT22;2496;52.468;13.342;2023-03-16T16:25:27;8.40;63.30